Time;durP1;ratioP1;P1;durP2;ratioP2;P2;SDS_P1;SDS_P2;PMS_P1;PMS_P2;Temp;Humidity;BMP_temperature;BMP_pressure;BME280_temperature;BME280_humidity;BME280_pressure;Samples;Min_cycle;Max_cycle;Signal;HPM_P1;HPM_P2
2022/09/19 00:00:43;;;;;;;1.15;0.10;;;;;;;10.95;100.00;101601.72;5039447;28;20420;-50
2022/09/19 00:03:09;;;;;;;0.22;0.22;;;;;;;10.93;100.00;101604.53;5039104;28;20025;-51
2022/09/19 00:05:39;;;;;;;2.08;0.10;;;;;;;10.97;100.00;101605.88;5043108;28;20037;-52
2022/09/19 00:08:05;;;;;;;1.27;0.30;;;;;;;10.97;100.00;101605.88;5034727;28;20032;-52
2022/09/19 00:10:30;;;;;;;1.00;0.10;;;;;;;10.96;100.00;101609.50;5040698;28;20055;-49
2022/09/19 00:12:55;;;;;;;1.35;0.10;;;;;;;10.92;100.00;101610.84;5047800;28;20084;-54
2022/09/19 00:15:22;;;;;;;0.30;0.20;;;;;;;10.88;100.00;101617.47;5043409;28;20056;-52
2022/09/19 00:17:50;;;;;;;1.30;0.20;;;;;;;10.85;100.00;101612.47;5041698;28;20056;-53
2022/09/19 00:20:16;;;;;;;0.03;0.00;;;;;;;10.81;100.00;101616.44;5038803;28;20053;-51
2022/09/19 00:24:45;;;;;;;0.90;0.10;;;;;;;10.77;100.00;101618.63;5041567;28;20028;-50
2022/09/19 00:25:28;;;;;;;0.85;0.20;;;;;;;10.74;100.00;101618.94;5035863;28;20288;-52
2022/09/19 00:27:53;;;;;;;0.30;0.13;;;;;;;10.74;100.00;101629.56;5037215;28;20040;-53
2022/09/19 00:30:19;;;;;;;0.17;0.00;;;;;;;10.76;100.00;101621.41;5052476;28;20025;-54
2022/09/19 00:32:44;;;;;;;1.60;0.00;;;;;;;10.77;100.00;101634.53;5050147;28;20025;-52
2022/09/19 00:35:10;;;;;;;0.98;0.30;;;;;;;10.74;100.00;101628.69;5047521;28;20036;-51
2022/09/19 00:37:35;;;;;;;1.70;0.20;;;;;;;10.70;100.00;101631.69;5038980;28;20053;-52
2022/09/19 00:40:01;;;;;;;0.60;0.10;;;;;;;10.67;100.00;101629.38;5044036;28;20068;-51
2022/09/19 00:42:26;;;;;;;0.75;0.10;;;;;;;10.62;100.00;101630.84;5036030;28;20057;-52
2022/09/19 00:44:55;;;;;;;1.27;0.10;;;;;;;10.60;100.00;101633.66;5031991;28;20037;-52
2022/09/19 00:47:27;;;;;;;3.55;0.05;;;;;;;10.57;100.00;101631.34;5032201;28;20124;-54
2022/09/19 00:49:56;;;;;;;2.63;0.17;;;;;;;10.54;100.00;101636.16;5040969;28;20025;-51
2022/09/19 00:52:32;;;;;;;0.55;0.10;;;;;;;10.52;100.00;101635.47;5040756;28;20284;-54
2022/09/19 00:54:57;;;;;;;0.65;0.30;;;;;;;10.49;100.00;101628.69;5047778;28;20036;-49
2022/09/19 00:57:30;;;;;;;1.00;0.05;;;;;;;10.45;100.00;101632.63;5034920;28;20031;-49
2022/09/19 00:59:57;;;;;;;0.55;0.00;;;;;;;10.36;100.00;101628.31;5047986;28;20103;-53
2022/09/19 01:02:28;;;;;;;1.70;0.20;;;;;;;10.33;100.00;101623.34;5039261;28;20029;-52
2022/09/19 01:04:53;;;;;;;2.33;0.05;;;;;;;10.31;100.00;101620.84;5039027;28;20045;-53
2022/09/19 01:07:35;;;;;;;0.00;0.00;;;;;;;10.31;100.00;101622.66;5036081;28;20022;-52
2022/09/19 01:10:35;;;;;;;1.92;0.20;;;;;;;10.31;100.00;101626.16;5029047;28;20036;-55
2022/09/19 01:13:20;;;;;;;1.05;0.68;;;;;;;10.30;100.00;101623.63;5046398;28;21125;-54
2022/09/19 01:16:03;;;;;;;1.05;0.00;;;;;;;10.25;100.00;101624.94;5041947;28;20033;-50
2022/09/19 01:18:36;;;;;;;3.80;0.32;;;;;;;10.24;100.00;101620.59;5034859;28;20029;-52
2022/09/19 01:21:47;;;;;;;0.10;0.00;;;;;;;10.25;100.00;101626.75;5036614;28;20045;-51
2022/09/19 01:24:41;;;;;;;2.75;0.00;;;;;;;10.26;100.00;101628.41;5031155;28;20041;-52
2022/09/19 01:27:44;;;;;;;1.88;0.85;;;;;;;10.24;100.00;101623.25;5039268;28;20053;-52
2022/09/19 01:30:12;;;;;;;1.38;0.00;;;;;;;10.23;100.00;101629.56;5020719;28;20091;-55
2022/09/19 01:32:44;;;;;;;0.32;0.10;;;;;;;10.24;100.00;101628.56;5037170;28;20029;-50
2022/09/19 01:35:14;;;;;;;0.00;0.00;;;;;;;10.25;100.00;101630.25;5030316;28;20029;-55
2022/09/19 01:37:45;;;;;;;2.35;0.20;;;;;;;10.26;100.00;101621.28;5033524;28;20128;-49
2022/09/19 01:40:12;;;;;;;;;;;;;;;10.30;100.00;101628.94;5036316;28;20743;-53
2022/09/19 01:42:55;;;;;;;1.35;0.10;;;;;;;10.31;100.00;101631.44;5040567;28;19920;-49
2022/09/19 01:45:47;;;;;;;0.10;0.00;;;;;;;10.33;100.00;101626.00;5033000;28;20033;-49
2022/09/19 01:48:27;;;;;;;0.20;0.00;;;;;;;10.33;100.00;101621.50;5041460;28;20076;-52
2022/09/19 01:51:24;;;;;;;0.30;0.10;;;;;;;10.33;100.00;101629.47;5031507;28;20384;-52
2022/09/19 01:54:08;;;;;;;1.50;0.00;;;;;;;10.33;100.00;101624.16;5039956;28;20025;-52
2022/09/19 01:56:47;;;;;;;1.48;0.38;;;;;;;10.34;100.00;101627.63;5035738;28;20034;-53
2022/09/19 01:59:34;;;;;;;1.13;0.13;;;;;;;10.33;100.00;101632.13;5038621;28;20033;-51
2022/09/19 02:02:02;;;;;;;0.60;0.00;;;;;;;10.32;100.00;101627.78;5042246;28;20029;-48
2022/09/19 02:04:33;;;;;;;0.20;0.10;;;;;;;10.34;100.00;101630.28;5035968;28;20401;-52
2022/09/19 02:07:07;;;;;;;2.85;0.20;;;;;;;10.34;100.00;101630.28;5037248;28;20037;-49
2022/09/19 02:10:00;;;;;;;1.45;0.93;;;;;;;10.36;100.00;101631.78;5035994;28;20072;-54
2022/09/19 02:12:30;;;;;;;4.28;0.17;;;;;;;10.36;100.00;101631.78;5040583;28;20026;-53
2022/09/19 02:15:00;;;;;;;0.90;0.70;;;;;;;10.36;100.00;101629.13;5040746;28;20034;-50
2022/09/19 02:17:33;;;;;;;0.38;0.03;;;;;;;10.39;100.00;101630.63;5042940;28;20532;-54
2022/09/19 02:20:07;;;;;;;4.00;0.20;;;;;;;10.42;100.00;101628.47;5037366;28;20190;-50
2022/09/19 02:22:38;;;;;;;0.22;0.10;;;;;;;10.46;100.00;101631.66;5039145;28;20155;-55
2022/09/19 02:25:08;;;;;;;0.60;0.60;;;;;;;10.46;100.00;101632.47;5047107;28;20032;-50
2022/09/19 02:27:50;;;;;;;0.15;0.10;;;;;;;10.47;100.00;101634.13;5044291;28;20247;-52
2022/09/19 02:30:20;;;;;;;0.20;0.00;;;;;;;10.47;100.00;101633.31;5036419;28;20031;-52
2022/09/19 02:32:49;;;;;;;0.90;0.00;;;;;;;10.47;100.00;101635.97;5041140;28;20025;-52
2022/09/19 02:35:19;;;;;;;2.58;0.03;;;;;;;10.46;100.00;101635.13;5036572;28;20104;-53
2022/09/19 02:37:56;;;;;;;2.70;0.55;;;;;;;10.46;100.00;101632.47;5046483;28;20070;-52
2022/09/19 02:40:28;;;;;;;0.15;0.15;;;;;;;10.46;100.00;101634.31;5045024;28;20037;-53
2022/09/19 02:43:03;;;;;;;0.47;0.00;;;;;;;10.43;100.00;101635.47;5044768;28;20034;-54
2022/09/19 02:45:38;;;;;;;0.47;0.38;;;;;;;10.41;100.00;101633.97;5043550;28;20037;-52
2022/09/19 02:48:20;;;;;;;1.38;0.00;;;;;;;10.42;100.00;101630.31;5032065;28;20059;-53
2022/09/19 02:50:52;;;;;;;2.28;0.10;;;;;;;10.43;100.00;101630.16;5042205;28;20057;-50
2022/09/19 02:53:28;;;;;;;0.30;0.00;;;;;;;10.42;100.00;101627.66;5039965;28;20451;-50
2022/09/19 02:55:58;;;;;;;0.00;0.00;;;;;;;10.40;100.00;101624.34;5047634;28;20275;-51
2022/09/19 02:58:27;;;;;;;2.05;0.00;;;;;;;10.38;100.00;101621.88;5032603;28;20021;-53
2022/09/19 03:01:03;;;;;;;0.43;0.20;;;;;;;10.38;100.00;101627.16;5035719;28;20029;-50
2022/09/19 03:06:27;;;;;;;1.33;0.10;;;;;;;10.42;100.00;101627.66;5043594;28;20405;-50
2022/09/19 03:08:56;;;;;;;1.02;0.28;;;;;;;10.43;100.00;101622.22;5033775;28;20025;-50
2022/09/19 03:11:25;;;;;;;3.08;0.15;;;;;;;10.43;100.00;101629.34;5043122;28;20469;-51
2022/09/19 03:13:51;;;;;;;2.58;0.00;;;;;;;10.42;100.00;101628.47;5043835;28;20042;-49
2022/09/19 03:16:22;;;;;;;0.35;0.25;;;;;;;10.43;100.00;101634.63;5037951;28;20033;-51
2022/09/19 03:18:55;;;;;;;0.70;0.00;;;;;;;10.43;100.00;101637.28;5041887;28;20135;-51
2022/09/19 03:21:23;;;;;;;4.78;0.20;;;;;;;10.42;100.00;101631.13;5044269;28;20115;-53
2022/09/19 03:23:51;;;;;;;2.70;0.10;;;;;;;10.43;100.00;101634.63;5035421;28;20017;-54
2022/09/19 03:26:20;;;;;;;4.15;0.10;;;;;;;10.42;100.00;101633.78;5039083;28;20025;-50
2022/09/19 03:28:46;;;;;;;0.93;0.00;;;;;;;10.41;100.00;101634.78;5035132;28;20138;-55
2022/09/19 03:31:12;;;;;;;1.05;0.10;;;;;;;10.42;100.00;101636.44;5031684;28;20029;-55
2022/09/19 03:33:39;;;;;;;1.05;0.00;;;;;;;10.43;100.00;101642.59;5032997;28;20044;-53
2022/09/19 03:36:07;;;;;;;2.38;0.60;;;;;;;10.43;100.00;101637.28;5039061;28;20492;-50
2022/09/19 03:38:36;;;;;;;0.75;0.10;;;;;;;10.42;100.00;101641.75;5033426;28;20037;-54
2022/09/19 03:41:02;;;;;;;5.25;0.77;;;;;;;10.40;100.00;101646.41;5042479;28;20235;-54
2022/09/19 03:43:29;;;;;;;0.20;0.10;;;;;;;10.43;100.00;101650.53;5039364;28;20498;-53
2022/09/19 03:45:55;;;;;;;1.38;0.20;;;;;;;10.44;100.00;101657.50;5043443;28;20040;-51
2022/09/19 03:48:21;;;;;;;4.03;0.22;;;;;;;10.44;100.00;101652.19;5039977;28;20096;-50
2022/09/19 03:50:46;;;;;;;5.00;1.08;;;;;;;10.43;100.00;101658.50;5040821;28;20027;-55
2022/09/19 03:53:13;;;;;;;2.92;0.10;;;;;;;10.44;100.00;101650.38;5040623;28;20036;-50
2022/09/19 03:55:40;;;;;;;1.13;0.00;;;;;;;10.44;100.00;101647.72;5033642;28;20058;-50
2022/09/19 03:58:06;;;;;;;0.32;0.08;;;;;;;10.41;100.00;101656.00;5048141;28;20155;-50
2022/09/19 04:00:32;;;;;;;0.03;0.00;;;;;;;10.36;100.00;101654.81;5033807;28;20117;-54
2022/09/19 04:02:57;;;;;;;2.55;0.30;;;;;;;10.35;100.00;101659.31;5039125;28;20234;-52
2022/09/19 04:05:22;;;;;;;0.20;0.00;;;;;;;10.36;100.00;101660.13;5041257;28;20471;-55
2022/09/19 04:07:48;;;;;;;1.00;0.25;;;;;;;10.35;100.00;101659.31;5040004;28;20128;-48
2022/09/19 04:10:14;;;;;;;2.72;0.08;;;;;;;10.35;100.00;101658.44;5040269;28;20268;-48
2022/09/19 04:12:40;;;;;;;3.17;0.28;;;;;;;10.36;100.00;101662.78;5046729;28;20021;-47
2022/09/19 04:15:07;;;;;;;0.10;0.00;;;;;;;10.37;100.00;101662.59;5034362;28;20031;-51
2022/09/19 04:17:32;;;;;;;4.20;0.10;;;;;;;10.39;100.00;101662.44;5034791;28;20053;-49
2022/09/19 04:19:58;;;;;;;0.20;0.00;;;;;;;10.38;100.00;101666.94;5037739;28;20445;-50
2022/09/19 04:22:23;;;;;;;0.20;0.00;;;;;;;10.37;100.00;101664.44;5041887;28;20041;-47
2022/09/19 04:24:49;;;;;;;0.10;0.00;;;;;;;10.32;100.00;101662.25;5040193;28;20025;-49
2022/09/19 04:27:14;;;;;;;1.63;0.17;;;;;;;10.30;100.00;101666.06;5039848;28;20132;-50
2022/09/19 04:29:43;;;;;;;0.35;0.00;;;;;;;10.25;100.00;101670.00;5045414;28;20056;-51
2022/09/19 04:32:10;;;;;;;0.47;0.00;;;;;;;10.25;100.00;101669.19;5034251;28;20100;-48
2022/09/19 04:34:35;;;;;;;3.03;0.85;;;;;;;10.24;100.00;101663.03;5039991;28;20037;-54
2022/09/19 04:37:02;;;;;;;0.20;0.00;;;;;;;10.26;100.00;101660.22;5040391;28;20041;-54
2022/09/19 04:39:28;;;;;;;3.10;0.35;;;;;;;10.27;100.00;101667.16;5047055;28;20029;-52
2022/09/19 04:41:53;;;;;;;0.38;0.10;;;;;;;10.24;100.00;101668.31;5036194;28;20036;-52
2022/09/19 04:44:25;;;;;;;0.17;0.17;;;;;;;10.24;100.00;101670.97;5040910;28;20029;-50
2022/09/19 04:46:51;;;;;;;2.05;0.00;;;;;;;10.22;100.00;101665.03;5035051;28;20045;-48
2022/09/19 04:49:17;;;;;;;1.67;0.00;;;;;;;10.25;100.00;101654.09;5034268;28;20026;-53
2022/09/19 04:51:44;;;;;;;2.08;0.10;;;;;;;10.28;100.00;101663.59;5036657;28;20025;-51
2022/09/19 04:54:10;;;;;;;0.85;0.10;;;;;;;10.28;100.00;101663.59;5040496;28;20024;-53
2022/09/19 04:56:35;;;;;;;1.75;0.00;;;;;;;10.26;100.00;101661.03;5045107;28;20471;-49
2022/09/19 04:59:03;;;;;;;0.85;0.35;;;;;;;10.26;100.00;101662.88;5033565;28;20067;-48
2022/09/19 05:01:30;;;;;;;0.52;0.03;;;;;;;10.27;100.00;101667.16;5041809;28;20037;-51
2022/09/19 05:03:56;;;;;;;0.08;0.00;;;;;;;10.25;100.00;101661.22;5028683;28;20033;-50
2022/09/19 05:06:21;;;;;;;0.45;0.20;;;;;;;10.26;100.00;101663.69;5052198;28;20493;-47
2022/09/19 05:08:47;;;;;;;3.10;0.22;;;;;;;10.27;100.00;101661.88;5043150;28;20477;-47
2022/09/19 05:11:12;;;;;;;0.88;0.25;;;;;;;10.27;100.00;101661.88;5041440;28;20056;-49
2022/09/19 05:13:39;;;;;;;0.47;0.32;;;;;;;10.28;100.00;101666.22;5033907;28;20482;-47
2022/09/19 05:16:05;;;;;;;4.40;0.00;;;;;;;10.26;100.00;101660.22;5038454;28;20036;-47
2022/09/19 05:18:35;;;;;;;1.02;0.20;;;;;;;10.24;100.00;101667.50;5044408;28;20477;-53
2022/09/19 05:21:10;;;;;;;1.95;0.00;;;;;;;10.20;100.00;101667.00;5039832;28;20025;-48
2022/09/19 05:23:37;;;;;;;0.63;0.10;;;;;;;10.16;100.00;101662.16;5029200;28;20493;-51
2022/09/19 05:26:09;;;;;;;0.68;0.10;;;;;;;10.15;100.00;101665.81;5048355;28;20032;-50
2022/09/19 05:28:36;;;;;;;0.77;0.20;;;;;;;10.11;100.00;101662.63;5039108;28;20514;-49
2022/09/19 05:31:05;;;;;;;1.73;0.08;;;;;;;10.10;100.00;101671.59;5047076;28;20523;-49
2022/09/19 05:33:32;;;;;;;0.40;0.08;;;;;;;10.11;100.00;101669.75;5041802;28;20111;-47
2022/09/19 05:36:00;;;;;;;0.65;0.10;;;;;;;10.06;100.00;101672.88;5046206;28;20033;-47
2022/09/19 05:38:27;;;;;;;0.75;0.40;;;;;;;10.05;100.00;101671.25;5036491;28;20018;-47
2022/09/19 05:40:54;;;;;;;5.63;0.05;;;;;;;10.06;100.00;101680.84;5031552;28;20121;-48
2022/09/19 05:43:19;;;;;;;0.10;0.00;;;;;;;10.07;100.00;101673.72;5040962;28;20076;-50
2022/09/19 05:45:46;;;;;;;1.05;0.63;;;;;;;10.07;100.00;101682.50;5046063;28;20057;-48
2022/09/19 05:48:11;;;;;;;0.68;0.40;;;;;;;10.09;100.00;101680.50;5033446;28;20047;-49
2022/09/19 05:50:36;;;;;;;0.28;0.00;;;;;;;10.11;100.00;101680.38;5037829;28;20033;-48
2022/09/19 05:55:47;;;;;;;3.72;0.63;;;;;;;10.09;100.00;101685.81;5034099;28;20048;-49
2022/09/19 05:58:13;;;;;;;0.30;0.00;;;;;;;10.09;100.00;101691.13;5041203;28;20032;-47
2022/09/19 06:00:38;;;;;;;0.05;0.05;;;;;;;10.12;100.00;101689.97;5045590;28;20025;-48
2022/09/19 06:03:05;;;;;;;2.30;0.25;;;;;;;10.13;100.00;101687.16;5034075;28;20123;-52
2022/09/19 06:05:38;;;;;;;0.47;0.13;;;;;;;10.17;100.00;101699.13;5040860;28;20028;-51
2022/09/19 06:08:04;;;;;;;0.45;0.17;;;;;;;10.19;100.00;101697.13;5049863;28;20028;-51
2022/09/19 06:10:34;;;;;;;1.65;0.28;;;;;;;10.24;100.00;101696.66;5041471;28;20021;-48
2022/09/19 06:12:59;;;;;;;2.55;0.03;;;;;;;10.26;100.00;101692.84;5052481;28;20043;-50
2022/09/19 06:15:25;;;;;;;0.63;0.10;;;;;;;10.28;100.00;101695.41;5047693;28;20493;-53
2022/09/19 06:17:55;;;;;;;0.85;0.20;;;;;;;10.30;100.00;101704.03;5048561;28;20021;-53
2022/09/19 06:20:20;;;;;;;5.18;0.10;;;;;;;10.31;100.00;101702.19;5032568;28;20132;-52
2022/09/19 06:22:45;;;;;;;0.50;0.45;;;;;;;10.30;100.00;101698.72;5043133;28;20514;-53
2022/09/19 06:25:12;;;;;;;1.02;0.00;;;;;;;10.33;100.00;101702.88;5043987;28;20392;-52
2022/09/19 06:27:38;;;;;;;0.63;0.00;;;;;;;10.35;100.00;101706.16;5041819;28;20220;-50
2022/09/19 06:30:05;;;;;;;0.00;0.00;;;;;;;10.34;100.00;101712.47;5036677;28;20137;-51
2022/09/19 06:32:30;;;;;;;2.17;0.00;;;;;;;10.36;100.00;101713.97;5030031;28;20031;-52
2022/09/19 06:34:56;;;;;;;1.05;0.00;;;;;;;10.37;100.00;101710.31;5038931;28;20033;-51
2022/09/19 06:37:21;;;;;;;2.15;0.00;;;;;;;10.42;100.00;101709.84;5042643;28;21360;-52
2022/09/19 06:39:47;;;;;;;0.45;0.15;;;;;;;10.46;100.00;101727.13;5041622;28;20095;-54
2022/09/19 06:42:12;;;;;;;0.88;0.55;;;;;;;10.48;100.00;101719.84;5045423;28;20040;-55
2022/09/19 06:44:38;;;;;;;0.88;0.20;;;;;;;10.50;100.00;101727.63;5034716;28;20030;-52
2022/09/19 06:47:05;;;;;;;5.57;0.90;;;;;;;10.53;100.00;101720.16;5039469;28;20029;-54
2022/09/19 06:49:30;;;;;;;0.50;0.20;;;;;;;10.55;100.00;101731.44;5040622;28;20397;-55
2022/09/19 06:51:56;;;;;;;2.13;0.30;;;;;;;10.57;100.00;101726.81;5041578;28;20033;-52
2022/09/19 06:54:22;;;;;;;0.50;0.10;;;;;;;10.58;100.00;101739.06;5041444;28;20497;-52
2022/09/19 06:56:49;;;;;;;1.90;0.20;;;;;;;10.59;100.00;101729.31;5041622;28;20034;-52
2022/09/19 06:59:15;;;;;;;9.23;1.98;;;;;;;10.62;100.00;101734.28;5046160;28;20051;-50
2022/09/19 07:01:40;;;;;;;3.40;0.40;;;;;;;10.66;100.00;101733.81;5037607;28;20025;-50
2022/09/19 07:04:05;;;;;;;0.30;0.00;;;;;;;10.69;100.00;101741.44;5032804;28;20052;-50
2022/09/19 07:06:34;;;;;;;1.98;0.00;;;;;;;10.74;100.00;101737.47;5032614;28;20394;-51
2022/09/19 07:09:02;;;;;;;0.52;0.00;;;;;;;10.77;100.00;101739.81;5046535;28;20151;-50
2022/09/19 07:11:28;;;;;;;0.40;0.00;;;;;;;10.82;100.00;101734.88;5038612;28;20083;-50
2022/09/19 07:13:53;;;;;;;0.30;0.05;;;;;;;10.86;100.00;101733.53;5039778;28;20051;-50
2022/09/19 07:16:19;;;;;;;1.00;0.43;;;;;;;10.87;100.00;101738.69;5036794;28;20537;-49
2022/09/19 07:18:44;;;;;;;1.58;0.00;;;;;;;10.90;100.00;101742.84;5039685;28;20043;-49
2022/09/19 07:21:09;;;;;;;0.00;0.00;;;;;;;10.90;100.00;101735.69;5042711;28;20024;-48
2022/09/19 07:23:35;;;;;;;6.95;0.00;;;;;;;10.96;100.00;101736.03;5042780;28;20033;-53
2022/09/19 07:26:01;;;;;;;3.60;0.03;;;;;;;11.01;100.00;101736.38;5041385;28;20060;-51
2022/09/19 07:28:26;;;;;;;2.80;0.10;;;;;;;11.04;100.00;101742.19;5045208;28;20327;-53
2022/09/19 07:30:52;;;;;;;0.57;0.00;;;;;;;11.07;100.00;101736.53;5036859;28;20025;-51
2022/09/19 07:33:20;;;;;;;0.20;0.00;;;;;;;11.11;100.00;101745.84;5036430;28;20021;-52
2022/09/19 07:35:46;;;;;;;1.20;0.20;;;;;;;11.12;100.00;101744.84;5034540;28;20805;-49
2022/09/19 07:38:17;;;;;;;0.65;0.00;;;;;;;11.17;100.00;101748.84;5033452;28;20037;-49
2022/09/19 07:40:42;;;;;;;0.47;0.00;;;;;;;11.20;100.00;101745.84;5035158;28;20825;-53
2022/09/19 07:43:12;;;;;;;0.20;0.00;;;;;;;11.27;100.00;101746.88;5032424;28;20026;-49
2022/09/19 07:45:38;;;;;;;1.90;1.08;;;;;;;11.33;100.00;101744.41;5032972;28;20080;-50
2022/09/19 07:48:04;;;;;;;5.25;0.35;;;;;;;11.44;100.00;101739.75;5030346;28;20420;-49
2022/09/19 07:50:30;;;;;;;1.35;0.38;;;;;;;11.50;100.00;101741.75;5030477;28;20121;-50
2022/09/19 07:53:13;;;;;;;0.38;0.00;;;;;;;11.54;100.00;101741.25;5036834;28;20061;-53
2022/09/19 07:55:41;;;;;;;1.95;0.00;;;;;;;11.61;100.00;101745.88;5034550;28;20020;-49
2022/09/19 07:58:08;;;;;;;0.25;0.00;;;;;;;11.69;100.00;101744.03;5032052;28;20037;-55
2022/09/19 08:00:35;;;;;;;8.65;0.10;;;;;;;11.81;100.00;101743.72;5029020;28;20053;-52
2022/09/19 08:03:08;;;;;;;0.10;0.00;;;;;;;11.92;100.00;101749.53;5023661;28;21488;-53
2022/09/19 08:05:37;;;;;;;0.28;0.00;;;;;;;11.94;100.00;101752.03;5029615;28;20101;-51
2022/09/19 08:08:03;;;;;;;2.38;0.10;;;;;;;11.98;100.00;101761.34;5029399;28;20041;-55
2022/09/19 08:10:30;;;;;;;1.85;0.05;;;;;;;11.93;100.00;101761.00;5032923;28;20108;-52
2022/09/19 08:13:02;;;;;;;1.00;0.00;;;;;;;11.98;100.00;101764.81;5033675;28;20049;-55
2022/09/19 08:15:29;;;;;;;0.17;0.10;;;;;;;12.08;100.00;101769.09;5035115;28;20577;-53
2022/09/19 08:18:00;;;;;;;7.22;0.75;;;;;;;12.14;100.00;101774.56;5033724;28;20137;-51
2022/09/19 08:20:27;;;;;;;0.75;0.00;;;;;;;12.21;100.00;101767.59;5026599;28;20465;-50
2022/09/19 08:22:58;;;;;;;1.38;0.00;;;;;;;12.25;100.00;101768.06;5032551;28;20473;-50
2022/09/19 08:25:28;;;;;;;0.60;0.20;;;;;;;12.26;100.00;101777.69;5039969;28;20486;-52
2022/09/19 08:27:57;;;;;;;0.65;0.10;;;;;;;12.26;100.00;101772.38;5030966;28;20132;-53
2022/09/19 08:30:24;;;;;;;1.80;0.00;;;;;;;12.34;100.00;101776.84;5026276;28;20462;-55
2022/09/19 08:32:50;;;;;;;1.27;0.00;;;;;;;12.37;100.00;101774.69;5030834;28;20033;-53
2022/09/19 08:35:20;;;;;;;0.90;0.32;;;;;;;12.46;100.00;101772.00;5038395;28;20144;-52
2022/09/19 08:38:00;;;;;;;4.93;0.63;;;;;;;12.57;100.00;101774.28;5024973;28;20031;-51
2022/09/19 08:40:28;;;;;;;0.03;0.00;;;;;;;12.62;100.00;101767.44;5033894;28;20051;-54
2022/09/19 08:43:18;;;;;;;1.08;0.32;;;;;;;12.59;100.00;101767.78;5038899;28;20033;-49
2022/09/19 08:46:26;;;;;;;0.82;0.13;;;;;;;12.60;100.00;101768.63;5029978;28;20668;-53
2022/09/19 08:49:16;;;;;;;0.60;0.40;;;;;;;12.67;100.00;101761.59;5038718;28;20025;-55
2022/09/19 08:52:21;;;;;;;1.85;0.47;;;;;;;12.78;100.00;101766.53;5036965;28;20033;-54
2022/09/19 08:54:50;;;;;;;0.93;0.03;;;;;;;12.84;100.00;101765.00;5020834;28;20083;-53
2022/09/19 08:57:33;;;;;;;1.27;0.10;;;;;;;12.91;100.00;101765.97;5034263;28;20033;-50
2022/09/19 09:00:06;;;;;;;0.22;0.10;;;;;;;12.99;100.00;101767.75;5042221;28;20037;-52
2022/09/19 09:02:54;;;;;;;0.80;0.10;;;;;;;13.07;100.00;101762.38;5034369;28;20490;-53
2022/09/19 09:05:36;;;;;;;0.68;0.00;;;;;;;13.13;100.00;101766.16;5030683;28;20026;-50
2022/09/19 09:08:30;;;;;;;1.13;0.00;;;;;;;13.13;100.00;101758.19;5038997;28;20226;-52
2022/09/19 09:11:09;;;;;;;0.10;0.00;;;;;;;13.22;100.00;101765.94;5040545;28;20025;-52
2022/09/19 09:13:58;;;;;;;2.08;0.00;;;;;;;13.26;100.00;101759.28;5033684;28;20068;-51
2022/09/19 09:16:49;;;;;;;1.08;0.63;;;;;;;13.26;100.00;101759.28;5042356;28;20489;-51
2022/09/19 09:19:23;;;;;;;1.67;0.05;;;;;;;13.38;100.00;101773.03;5034433;28;20103;-49
2022/09/19 09:21:51;;;;;;;1.50;0.00;;;;;;;13.46;100.00;101766.81;5040189;28;20032;-51
2022/09/19 09:24:22;;;;;;;0.30;0.00;;;;;;;13.49;100.00;101763.78;5036331;28;20031;-48
2022/09/19 09:26:52;;;;;;;0.52;0.10;;;;;;;13.51;100.00;101767.91;5037311;28;20078;-52
2022/09/19 09:29:33;;;;;;;1.92;0.00;;;;;;;13.60;100.00;101766.00;5043824;28;20439;-49
2022/09/19 09:32:30;;;;;;;0.90;0.00;;;;;;;13.62;100.00;101768.50;5037903;28;20390;-53
2022/09/19 09:35:01;;;;;;;0.08;0.00;;;;;;;13.71;100.00;101768.25;5038517;28;20506;-50
2022/09/19 09:37:34;;;;;;;0.73;0.28;;;;;;;13.88;100.00;101768.09;5039817;28;20026;-54
2022/09/19 09:41:44;;;;;;;0.25;0.00;;;;;;;14.07;100.00;101766.72;5032595;28;20049;-53
2022/09/19 09:43:05;;;;;;;1.00;0.05;;;;;;;14.11;100.00;101768.84;5041527;28;20061;-51
2022/09/19 09:45:35;;;;;;;1.98;0.57;;;;;;;14.16;100.00;101766.47;5041642;28;20032;-48
2022/09/19 09:48:32;;;;;;;0.50;0.20;;;;;;;14.19;100.00;101758.09;5036150;28;20029;-50
2022/09/19 09:51:04;;;;;;;0.00;0.00;;;;;;;14.18;100.00;101756.44;5029936;28;20045;-52
2022/09/19 09:53:39;;;;;;;0.90;0.00;;;;;;;14.23;100.00;101757.75;5031576;28;20025;-49
2022/09/19 09:56:15;;;;;;;0.95;0.20;;;;;;;14.26;100.00;101755.53;5030304;28;20033;-51
2022/09/19 09:58:59;;;;;;;0.63;0.00;;;;;;;14.50;100.00;101767.75;5030369;28;20043;-52
2022/09/19 10:04:35;;;;;;;2.55;0.00;;;;;;;14.62;100.00;101757.47;5029469;28;20036;-53
2022/09/19 10:07:13;;;;;;;2.08;0.10;;;;;;;14.87;100.00;101749.13;5031260;28;20042;-51
2022/09/19 10:09:52;;;;;;;1.30;0.28;;;;;;;15.13;100.00;101761.94;5030059;28;20472;-53
2022/09/19 10:12:24;;;;;;;1.77;0.10;;;;;;;15.29;100.00;101755.53;5022227;28;20439;-53
2022/09/19 10:14:55;;;;;;;0.10;0.00;;;;;;;15.44;100.00;101758.97;5035993;28;20147;-55
2022/09/19 10:17:22;;;;;;;0.60;0.00;;;;;;;15.53;100.00;101755.13;5028982;28;20029;-49
2022/09/19 10:19:55;;;;;;;1.05;0.65;;;;;;;15.53;100.00;101756.97;5036455;28;20082;-49
2022/09/19 10:22:22;;;;;;;0.63;0.00;;;;;;;15.27;100.00;101748.50;5036955;28;20028;-55
2022/09/19 10:24:58;;;;;;;2.65;0.00;;;;;;;15.33;100.00;101754.94;5022958;28;20844;-51
2022/09/19 10:27:33;;;;;;;0.15;0.00;;;;;;;15.48;100.00;101763.72;5036696;28;20060;-49
2022/09/19 10:30:24;;;;;;;0.47;0.15;;;;;;;15.62;100.00;101761.19;5042236;28;20025;-51
2022/09/19 10:32:51;;;;;;;0.52;0.00;;;;;;;15.68;100.00;101760.38;5039035;28;20025;-53
2022/09/19 10:35:31;;;;;;;0.00;0.00;;;;;;;15.91;100.00;101761.00;5037042;28;20513;-54
2022/09/19 10:38:17;;;;;;;0.98;0.10;;;;;;;16.15;100.00;101756.22;5041751;28;20025;-54
2022/09/19 10:41:01;;;;;;;0.00;0.00;;;;;;;16.21;100.00;101751.91;5036346;28;20030;-54
2022/09/19 10:43:31;;;;;;;0.15;0.00;;;;;;;16.20;100.00;101761.81;5034291;28;20030;-55
2022/09/19 10:46:31;;;;;;;0.47;0.00;;;;;;;16.17;100.00;101759.53;5047737;28;20033;-55
2022/09/19 10:48:58;;;;;;;1.17;0.00;;;;;;;16.10;100.00;101764.00;5035871;28;20061;-52
2022/09/19 10:51:35;;;;;;;1.35;0.30;;;;;;;16.17;100.00;101756.03;5043928;28;20036;-53
2022/09/19 10:54:11;;;;;;;0.00;0.00;;;;;;;16.39;100.00;101751.41;5039866;28;20033;-51
2022/09/19 10:56:40;;;;;;;0.00;0.00;;;;;;;16.39;100.00;101754.88;5039350;28;20033;-53
2022/09/19 10:59:23;;;;;;;0.25;0.10;;;;;;;16.33;100.00;101755.69;5045463;28;20036;-54
2022/09/19 11:02:17;;;;;;;0.45;0.30;;;;;;;16.23;100.00;101757.91;5034182;28;20030;-51
2022/09/19 11:04:56;;;;;;;0.03;0.00;;;;;;;16.11;100.00;101758.47;5044132;28;20044;-56
2022/09/19 11:07:26;;;;;;;3.53;0.00;;;;;;;16.34;100.00;101752.84;5038952;28;20361;-52
2022/09/19 11:09:58;;;;;;;0.25;0.00;;;;;;;16.48;100.00;101755.56;5043216;28;20040;-49
2022/09/19 11:12:24;;;;;;;0.32;0.30;;;;;;;16.58;100.00;101761.38;5048246;28;20082;-49
2022/09/19 11:14:50;;;;;;;1.10;0.10;;;;;;;16.77;100.00;101751.75;5039743;28;20433;-51
2022/09/19 11:17:47;;;;;;;0.25;0.10;;;;;;;17.02;100.00;101752.06;5045331;28;20424;-49
2022/09/19 11:20:23;;;;;;;0.80;0.10;;;;;;;17.06;100.00;101747.13;5054003;28;20033;-48
2022/09/19 11:23:13;;;;;;;0.40;0.05;;;;;;;16.93;100.00;101746.06;5048224;28;20139;-48
2022/09/19 11:26:08;;;;;;;0.40;0.00;;;;;;;16.97;100.00;101739.28;5042619;28;20386;-52
2022/09/19 11:28:34;;;;;;;0.52;0.00;;;;;;;17.03;100.00;101742.19;5037893;28;20079;-53
2022/09/19 11:31:44;;;;;;;0.65;0.20;;;;;;;17.00;100.00;101735.38;5038625;28;20036;-52
2022/09/19 11:34:31;;;;;;;4.40;1.80;;;;;;;16.88;100.00;101735.16;4990448;28;20499;-54
2022/09/19 11:37:21;;;;;;;4.78;1.38;;;;;;;16.88;100.00;101739.66;4982746;28;20050;-51
2022/09/19 11:40:24;;;;;;;0.47;0.28;;;;;;;17.30;100.00;101732.34;5026353;28;20037;-53
2022/09/19 11:43:29;;;;;;;1.33;0.52;;;;;;;17.51;100.00;101734.81;5037694;28;20072;-55
2022/09/19 11:46:03;;;;;;;0.40;0.10;;;;;;;17.20;100.00;101733.56;5033287;28;20029;-54
2022/09/19 11:49:34;;;;;;;1.67;0.00;;;;;;;17.20;100.00;101736.22;5031064;28;20057;-51